Time;durP1;ratioP1;P1;durP2;ratioP2;P2;SDS_P1;SDS_P2;PMS_P1;PMS_P2;Temp;Humidity;BMP_temperature;BMP_pressure;BME280_temperature;BME280_humidity;BME280_pressure;Samples;Min_cycle;Max_cycle;Signal;HPM_P1;HPM_P2
2021/08/24 00:00:56;;;;;;;;;13.75;12.25;;;;;16.88;73.34;101546.97;5077736;27;45304;-66
2021/08/24 00:03:22;;;;;;;;;11.75;11.75;;;;;16.90;73.62;101543.31;5077882;27;45343;-65
2021/08/24 00:05:48;;;;;;;;;13.25;10.75;;;;;16.95;73.24;101537.75;5077901;28;45271;-65
2021/08/24 00:08:14;;;;;;;;;12.00;9.00;;;;;16.98;73.26;101540.31;5077553;27;45781;-65
2021/08/24 00:10:44;;;;;;;;;12.50;9.75;;;;;17.01;73.48;101544.59;5077630;27;45368;-66
2021/08/24 00:13:11;;;;;;;;;19.00;14.00;;;;;16.99;73.63;101543.81;5077423;27;45252;-65
2021/08/24 00:15:37;;;;;;;;;15.00;12.75;;;;;16.91;73.67;101531.75;5077754;27;45580;-65
2021/08/24 00:18:03;;;;;;;;;11.75;11.75;;;;;16.92;73.85;101530.81;5077660;27;46014;-65
2021/08/24 00:20:32;;;;;;;;;16.25;13.00;;;;;16.87;74.43;101534.63;5059677;28;45353;-65
2021/08/24 00:23:01;;;;;;;;;13.00;12.75;;;;;16.79;74.11;101527.94;5058950;28;45358;-65
2021/08/24 00:25:26;;;;;;;;;12.25;10.50;;;;;16.70;74.87;101517.78;5058831;28;45390;-65
2021/08/24 00:27:51;;;;;;;;;16.25;13.25;;;;;16.66;74.89;101526.84;5058730;28;46879;-63
2021/08/24 00:30:17;;;;;;;;;17.00;13.25;;;;;16.59;75.75;101523.66;5077144;28;45303;-66
2021/08/24 00:32:42;;;;;;;;;13.25;12.00;;;;;16.50;75.58;101513.50;5058623;28;45347;-65
2021/08/24 00:35:08;;;;;;;;;15.25;13.50;;;;;16.49;75.46;101517.94;5077082;28;45585;-65
2021/08/24 00:37:33;;;;;;;;;18.50;14.00;;;;;16.44;75.89;101519.97;5077533;27;45419;-65
2021/08/24 00:39:59;;;;;;;;;14.50;13.00;;;;;16.39;76.23;101513.13;5077065;27;45481;-64
2021/08/24 00:42:24;;;;;;;;;15.50;12.50;;;;;16.34;75.90;101505.44;5077108;28;45442;-64
2021/08/24 00:44:50;;;;;;;;;18.25;15.75;;;;;16.34;76.35;101513.38;5058999;28;45366;-65
2021/08/24 00:47:18;;;;;;;;;15.75;14.00;;;;;16.33;76.88;101519.63;5076890;28;46564;-64
2021/08/24 00:49:44;;;;;;;;;17.00;14.50;;;;;16.26;76.42;101516.41;5076878;28;45387;-64
2021/08/24 00:52:14;;;;;;;;;16.00;13.50;;;;;16.25;76.73;101516.50;5076878;28;45506;-64
2021/08/24 00:54:45;;;;;;;;;20.75;18.00;;;;;16.22;76.93;101514.84;5076815;27;45547;-64
2021/08/24 00:57:13;;;;;;;;;22.50;21.50;;;;;16.15;77.32;101509.00;5076978;27;45889;-64
2021/08/24 00:59:40;;;;;;;;;18.00;14.75;;;;;16.13;77.28;101510.84;5075541;27;45216;-64
2021/08/24 01:02:08;;;;;;;;;18.75;16.50;;;;;16.10;77.32;101513.66;5077184;28;45370;-65
2021/08/24 01:04:34;;;;;;;;;17.50;16.25;;;;;16.08;77.79;101510.22;5077138;27;45404;-65
2021/08/24 01:07:25;;;;;;;;;15.50;14.50;;;;;16.04;78.00;101512.16;5057965;28;46144;-64
2021/08/24 01:10:12;;;;;;;;;15.75;13.25;;;;;16.02;78.11;101510.53;5076557;28;45362;-64
2021/08/24 01:13:00;;;;;;;;;17.25;16.00;;;;;15.97;78.09;101499.28;5076793;28;45342;-64
2021/08/24 01:15:33;;;;;;;;;16.25;15.00;;;;;15.96;78.70;101508.16;5076831;27;45193;-63
2021/08/24 01:18:10;;;;;;;;;19.50;19.00;;;;;15.93;78.61;101503.84;5076372;28;45570;-65
2021/08/24 01:21:06;;;;;;;;;22.00;17.50;;;;;15.88;78.88;101506.72;5076551;27;45289;-64
2021/08/24 01:23:36;;;;;;;;;19.75;16.75;;;;;15.88;78.71;101511.19;5076685;28;45303;-65
2021/08/24 01:26:17;;;;;;;;;19.50;17.50;;;;;15.86;79.12;101505.91;5076927;27;45306;-65
2021/08/24 01:29:01;;;;;;;;;16.75;15.75;;;;;15.86;78.83;101505.91;5076300;28;45343;-65
2021/08/24 01:31:36;;;;;;;;;17.75;17.50;;;;;15.85;79.22;101512.13;5076305;28;45252;-64
2021/08/24 01:34:25;;;;;;;;;19.00;16.75;;;;;15.83;79.61;101511.34;5075918;27;45360;-64
2021/08/24 01:37:03;;;;;;;;;15.50;15.25;;;;;15.82;79.73;101504.31;5076582;27;45409;-63
2021/08/24 01:39:41;;;;;;;;;23.25;18.25;;;;;15.81;79.29;101499.09;5058009;28;46287;-64
2021/08/24 01:42:20;;;;;;;;;19.75;15.75;;;;;15.81;79.26;101499.94;5076416;28;45244;-63
2021/08/24 01:45:06;;;;;;;;;16.00;15.50;;;;;15.81;79.75;101502.59;5076166;28;45469;-63
2021/08/24 01:47:37;;;;;;;;;19.00;16.75;;;;;15.79;79.05;101496.50;5076233;27;45291;-64
2021/08/24 01:50:14;;;;;;;;;18.25;16.00;;;;;15.78;79.09;101486.84;5075577;28;45480;-64
2021/08/24 01:52:45;;;;;;;;;17.50;17.50;;;;;15.79;79.23;101491.22;5075693;28;45409;-65
2021/08/24 01:55:33;;;;;;;;;19.25;16.75;;;;;15.76;79.35;101497.53;5075961;28;45268;-64
2021/08/24 01:58:19;;;;;;;;;17.00;16.25;;;;;15.71;79.82;101482.75;5076180;27;45711;-64
2021/08/24 02:00:50;;;;;;;;;18.50;18.00;;;;;15.72;79.63;101480.03;5075696;27;45596;-64
2021/08/24 02:03:26;;;;;;;;;22.75;18.25;;;;;15.67;79.79;101484.72;5075580;27;45382;-64
2021/08/24 02:05:57;;;;;;;;;14.00;12.75;;;;;15.68;79.72;101486.44;5075717;27;45473;-65
2021/08/24 02:08:26;;;;;;;;;23.25;20.00;;;;;15.68;79.67;101498.81;5075923;28;45400;-65
2021/08/24 02:10:55;;;;;;;;;21.50;18.50;;;;;15.66;80.03;101484.75;5075014;27;46770;-65
2021/08/24 02:13:24;;;;;;;;;17.00;17.00;;;;;15.68;80.12;101493.50;5075523;28;45477;-65
2021/08/24 02:15:55;;;;;;;;;22.75;19.25;;;;;15.67;80.28;101489.13;5057463;28;45449;-64
2021/08/24 02:18:27;;;;;;;;;20.50;17.00;;;;;15.65;80.59;101499.84;5057246;28;45822;-64
2021/08/24 02:21:01;;;;;;;;;27.25;25.00;;;;;15.66;80.24;101500.69;5075444;28;46098;-65
2021/08/24 02:23:29;;;;;;;;;23.75;17.50;;;;;15.70;80.62;101496.94;5075425;28;45320;-64
2021/08/24 02:25:58;;;;;;;;;27.25;22.00;;;;;15.69;80.99;101493.44;5075599;28;45386;-64
2021/08/24 02:28:56;;;;;;;;;23.25;18.75;;;;;15.69;81.39;101505.84;5075586;27;45560;-65
2021/08/24 02:31:43;;;;;;;;;24.00;21.50;;;;;15.68;81.37;101506.78;5053102;28;47970;-65
2021/08/24 02:34:29;;;;;;;;;23.25;21.25;;;;;15.72;80.99;101493.31;5075380;28;45431;-64
2021/08/24 02:37:00;;;;;;;;;23.25;21.25;;;;;15.74;80.93;101496.75;5075370;28;45418;-65
2021/08/24 02:39:34;;;;;;;;;27.75;22.25;;;;;15.76;80.96;101496.66;5075539;28;45388;-64
2021/08/24 02:42:16;;;;;;;;;27.00;23.50;;;;;15.76;81.18;101499.31;5075281;27;46229;-64
2021/08/24 02:44:50;;;;;;;;;23.50;21.00;;;;;15.78;80.70;101506.28;5075296;27;45386;-64
2021/08/24 02:47:17;;;;;;;;;24.50;22.00;;;;;15.76;80.96;101496.66;5075311;27;45823;-63
2021/08/24 02:49:43;;;;;;;;;26.00;25.50;;;;;15.80;80.92;101503.53;5075291;28;45354;-64
2021/08/24 02:52:10;;;;;;;;;25.75;21.75;;;;;15.81;80.84;101505.25;5075158;28;45570;-64
2021/08/24 02:54:43;;;;;;;;;28.25;25.50;;;;;15.82;80.73;101501.66;5075043;28;45323;-64
2021/08/24 02:57:09;;;;;;;;;30.00;27.75;;;;;15.78;80.82;101493.00;5075363;28;45339;-64
2021/08/24 02:59:36;;;;;;;;;25.50;23.25;;;;;15.80;81.02;101497.38;5056737;28;45377;-64
2021/08/24 03:02:03;;;;;;;;;30.25;28.00;;;;;15.78;81.16;101492.13;5074990;28;46089;-65
2021/08/24 03:04:29;;;;;;;;;28.50;27.00;;;;;15.77;81.04;101496.59;5056462;28;45906;-64
2021/08/24 03:07:02;;;;;;;;;32.00;26.75;;;;;15.81;81.28;101499.94;5074743;27;45375;-65
2021/08/24 03:09:31;;;;;;;;;33.75;29.50;;;;;15.82;81.59;101493.72;5074979;27;45365;-64
2021/08/24 03:12:20;;;;;;;;;28.50;25.00;;;;;15.84;80.72;101491.84;5056240;28;47026;-65
2021/08/24 03:14:59;;;;;;;;;34.00;30.00;;;;;15.82;81.32;101471.66;5074535;27;45398;-64
2021/08/24 03:17:29;;;;;;;;;38.00;30.25;;;;;15.89;81.12;101491.66;5074650;27;45405;-65
2021/08/24 03:19:59;;;;;;;;;41.50;32.75;;;;;15.84;80.87;101480.38;5074725;28;45269;-64
2021/08/24 03:22:25;;;;;;;;;35.50;29.25;;;;;15.87;81.05;101485.53;5074490;27;46272;-66
2021/08/24 03:24:51;;;;;;;;;37.50;30.25;;;;;15.91;80.57;101498.63;5078046;27;45352;-65
2021/08/24 03:27:16;;;;;;;;;32.50;28.00;;;;;15.97;81.07;101493.97;5078231;28;45414;-64
2021/08/24 03:29:57;;;;;;;;;30.25;28.75;;;;;15.95;81.12;101494.03;5060605;28;45555;-64
2021/08/24 03:32:22;;;;;;;;;33.00;31.25;;;;;15.98;80.64;101483.25;5059504;28;47157;-64
2021/08/24 03:34:47;;;;;;;;;32.50;30.25;;;;;16.00;80.79;101485.84;5077823;28;45433;-64
2021/08/24 03:37:12;;;;;;;;;34.50;31.00;;;;;15.98;80.92;101490.38;5078301;27;45264;-65
2021/08/24 03:39:38;;;;;;;;;42.00;33.25;;;;;16.02;81.24;101502.56;5078182;27;45332;-65
2021/08/24 03:42:03;;;;;;;;;36.00;32.25;;;;;16.02;80.71;101495.44;5077794;27;45634;-64
2021/08/24 03:44:29;;;;;;;;;41.25;34.50;;;;;16.05;80.75;101497.94;5077886;27;45319;-65
2021/08/24 03:46:55;;;;;;;;;36.50;31.75;;;;;16.05;80.43;101492.66;5059633;28;45363;-65
2021/08/24 03:49:20;;;;;;;;;42.25;33.75;;;;;16.04;80.61;101490.91;5078051;28;45565;-64
2021/08/24 03:51:46;;;;;;;;;31.25;30.75;;;;;16.05;80.34;101499.75;5077611;27;45513;-64
2021/08/24 03:54:11;;;;;;;;;37.75;32.75;;;;;16.03;80.44;101494.50;5077786;27;45327;-65
2021/08/24 03:56:36;;;;;;;;;41.75;34.75;;;;;16.06;80.33;101497.00;5077729;28;45379;-65
2021/08/24 03:59:02;;;;;;;;;39.25;31.50;;;;;16.08;80.75;101502.25;5059494;28;45325;-64
2021/08/24 04:01:27;;;;;;;;;40.25;34.00;;;;;16.10;80.13;101492.44;5059074;28;48409;-64
2021/08/24 04:03:53;;;;;;;;;42.75;33.50;;;;;16.11;80.07;101498.59;5077731;27;45413;-64
2021/08/24 04:06:18;;;;;;;;;40.25;33.00;;;;;16.12;80.04;101495.00;5077552;27;45497;-65
2021/08/24 04:08:43;;;;;;;;;40.75;34.50;;;;;16.12;80.07;101503.84;5078127;28;45576;-65
2021/08/24 04:11:09;;;;;;;;;40.00;32.50;;;;;16.12;80.10;101498.53;5077318;28;45230;-65
2021/08/24 04:13:34;;;;;;;;;39.00;31.75;;;;;16.14;80.26;101499.31;5059174;28;45302;-64
2021/08/24 04:16:08;;;;;;;;;43.75;33.50;;;;;16.14;80.30;101496.66;5059397;28;45417;-65
2021/08/24 04:18:34;;;;;;;;;38.00;32.25;;;;;16.15;79.83;101500.16;5077543;27;45368;-65
2021/08/24 04:21:00;;;;;;;;;37.25;32.25;;;;;16.14;79.64;101501.97;5058662;27;47297;-64
2021/08/24 04:23:25;;;;;;;;;38.25;32.75;;;;;16.10;80.13;101505.69;5077339;27;45410;-64
2021/08/24 04:25:50;;;;;;;;;33.50;29.75;;;;;16.06;80.11;101506.78;5077576;28;45277;-64
2021/08/24 04:28:16;;;;;;;;;43.75;34.25;;;;;16.02;79.95;101507.88;5077933;27;45258;-64
2021/08/24 04:30:42;;;;;;;;;49.50;37.25;;;;;15.98;80.11;101506.31;5077635;27;46453;-65
2021/08/24 04:33:07;;;;;;;;;38.25;33.00;;;;;15.96;80.12;101505.50;5076898;27;45212;-68
2021/08/24 04:35:33;;;;;;;;;46.50;34.00;;;;;15.95;80.37;101506.44;5077085;27;45363;-65
2021/08/24 04:37:58;;;;;;;;;43.75;33.75;;;;;15.92;80.47;101512.75;5059210;28;45346;-65
2021/08/24 04:40:27;;;;;;;;;41.75;35.00;;;;;15.89;80.43;101505.78;5076864;27;46099;-65
2021/08/24 04:42:52;;;;;;;;;43.25;34.50;;;;;15.94;80.32;101515.34;5076755;28;45436;-64
2021/08/24 04:45:18;;;;;;;;;46.50;36.25;;;;;15.91;80.60;101511.03;5076963;27;45306;-65
2021/08/24 04:47:44;;;;;;;;;42.00;34.25;;;;;15.90;80.56;101514.63;5059125;28;45575;-64
2021/08/24 04:50:10;;;;;;;;;42.50;34.75;;;;;15.83;80.37;101508.69;5076817;28;45423;-65
2021/08/24 04:52:35;;;;;;;;;42.25;35.00;;;;;15.81;80.51;101515.88;5076810;28;45266;-63
2021/08/24 04:55:00;;;;;;;;;45.00;35.75;;;;;15.78;80.50;101519.53;5076748;27;45374;-64
2021/08/24 04:57:26;;;;;;;;;47.00;35.75;;;;;15.69;81.39;101516.44;5077086;27;45841;-64
2021/08/24 04:59:51;;;;;;;;;41.25;34.25;;;;;15.65;81.71;101517.53;5076532;28;45370;-64
2021/08/24 05:02:18;;;;;;;;;46.75;39.00;;;;;15.62;81.41;101521.19;5076926;28;45309;-64
2021/08/24 05:04:43;;;;;;;;;47.75;35.50;;;;;15.60;81.87;101523.91;5059052;27;45369;-65
2021/08/24 05:07:09;;;;;;;;;51.25;40.00;;;;;15.57;81.50;101524.03;5058293;28;45584;-65
2021/08/24 05:09:34;;;;;;;;;43.00;33.50;;;;;15.55;81.59;101527.72;5076447;27;45778;-64
2021/08/24 05:12:00;;;;;;;;;44.75;36.00;;;;;15.55;81.95;101531.22;5058365;28;45342;-64
2021/08/24 05:14:25;;;;;;;;;48.50;37.75;;;;;15.49;82.26;101526.19;5076714;27;45362;-65
2021/08/24 05:16:56;;;;;;;;;51.75;38.75;;;;;15.47;81.93;101523.63;5076770;28;45307;-65
2021/08/24 05:19:22;;;;;;;;;42.25;36.00;;;;;15.47;81.93;101528.94;5057984;28;47479;-65
2021/08/24 05:21:47;;;;;;;;;40.25;33.00;;;;;15.48;82.41;101529.78;5058581;28;45371;-65
2021/08/24 05:24:13;;;;;;;;;44.25;35.00;;;;;15.47;82.09;101528.06;5076634;27;45318;-64
2021/08/24 05:26:38;;;;;;;;;41.25;34.50;;;;;15.48;81.79;101533.31;5076756;27;45254;-65
2021/08/24 05:29:04;;;;;;;;;43.75;34.50;;;;;15.49;82.16;101534.16;5076232;27;45319;-64
2021/08/24 05:31:29;;;;;;;;;51.00;37.75;;;;;15.47;82.21;101536.88;5076097;27;45181;-65
2021/08/24 05:33:54;;;;;;;;;33.75;31.00;;;;;15.47;81.89;101536.00;5076510;28;45859;-64
2021/08/24 05:36:20;;;;;;;;;52.25;41.00;;;;;15.47;82.38;101543.97;5058079;28;45411;-64
2021/08/24 05:38:45;;;;;;;;;47.00;36.00;;;;;15.45;82.30;101535.22;5076607;27;45470;-65
2021/08/24 05:41:11;;;;;;;;;44.50;35.00;;;;;15.46;82.06;101543.13;5076431;27;45427;-66
2021/08/24 05:43:36;;;;;;;;;37.25;30.25;;;;;15.51;81.85;101537.59;5075912;28;45393;-65
2021/08/24 05:46:09;;;;;;;;;38.75;34.25;;;;;15.53;81.87;101546.34;5057180;27;45453;-65
2021/08/24 05:48:35;;;;;;;;;50.50;42.00;;;;;15.54;81.71;101540.09;5076041;27;46283;-65
2021/08/24 05:51:19;;;;;;;;;43.50;34.25;;;;;15.54;81.47;101534.78;5058014;28;45539;-67
2021/08/24 05:53:45;;;;;;;;;48.50;35.75;;;;;15.54;81.78;101534.78;5076136;27;45162;-66
2021/08/24 05:56:13;;;;;;;;;39.50;31.50;;;;;15.55;81.94;101533.03;5076668;27;45329;-66
2021/08/24 05:58:39;;;;;;;;;37.75;32.50;;;;;15.57;81.67;101541.75;5076293;27;45527;-66
2021/08/24 06:01:05;;;;;;;;;32.75;29.25;;;;;15.56;81.57;101540.03;5057712;27;45362;-66
2021/08/24 06:03:32;;;;;;;;;41.00;32.25;;;;;15.56;81.34;101546.19;5075867;28;45294;-66
2021/08/24 06:05:58;;;;;;;;;40.50;36.25;;;;;15.57;81.06;101545.25;5075696;27;45361;-64
2021/08/24 06:08:24;;;;;;;;;34.75;30.50;;;;;15.62;81.21;101553.88;5057013;28;47466;-65
2021/08/24 06:10:50;;;;;;;;;37.00;32.00;;;;;15.65;81.04;101547.56;5075841;27;45473;-62
2021/08/24 06:13:15;;;;;;;;;37.00;33.00;;;;;15.71;80.50;101549.94;5062596;28;45635;-64
2021/08/24 06:15:40;;;;;;;;;38.25;33.50;;;;;15.74;80.70;101552.44;5072411;28;45234;-66
2021/08/24 06:18:06;;;;;;;;;43.75;35.75;;;;;15.78;80.36;101555.81;5073079;28;48099;-64
2021/08/24 06:20:31;;;;;;;;;39.75;33.00;;;;;15.82;80.46;101546.78;5074659;27;45392;-67
2021/08/24 06:22:57;;;;;;;;;42.50;35.25;;;;;15.87;80.23;101557.19;5056229;28;45384;-66
2021/08/24 06:25:23;;;;;;;;;37.25;33.25;;;;;15.91;80.03;101553.47;5074661;28;45458;-65
2021/08/24 06:27:50;;;;;;;;;38.50;32.50;;;;;15.93;79.97;101548.13;5074361;28;45470;-62
2021/08/24 06:30:15;;;;;;;;;38.00;34.75;;;;;15.96;79.59;101540.84;5042738;28;45435;-63
2021/08/24 06:32:46;;;;;;;;;35.00;30.50;;;;;16.01;79.32;101549.44;5054386;28;45325;-63
2021/08/24 06:35:12;;;;;;;;;40.00;32.25;;;;;16.11;79.36;101546.34;5067482;27;45363;-63
2021/08/24 06:37:38;;;;;;;;;36.50;31.25;;;;;16.13;78.83;101548.03;5073882;27;45534;-63
2021/08/24 06:40:06;;;;;;;;;35.50;29.00;;;;;16.18;78.70;101545.13;5074261;28;45427;-62
2021/08/24 06:42:47;;;;;;;;;35.25;28.75;;;;;16.23;78.67;101550.22;5074548;27;45386;-64
2021/08/24 06:45:37;;;;;;;;;36.25;34.00;;;;;16.21;78.62;101544.97;5056823;28;45422;-64
2021/08/24 06:48:03;;;;;;;;;36.75;33.00;;;;;16.24;78.44;101546.63;5074639;28;46513;-65
2021/08/24 06:50:31;;;;;;;;;40.75;32.75;;;;;16.32;78.33;101553.28;5074503;27;45317;-65
2021/08/24 06:52:57;;;;;;;;;32.75;28.75;;;;;16.34;78.48;101551.41;5074049;28;45435;-66
2021/08/24 06:55:25;;;;;;;;;38.75;32.50;;;;;16.42;78.18;101559.00;5074905;28;45343;-64
2021/08/24 06:57:54;;;;;;;;;50.50;38.75;;;;;16.52;77.82;101553.22;5074748;28;46180;-66
2021/08/24 07:00:22;;;;;;;;;41.50;35.00;;;;;16.62;77.58;101554.50;5074813;27;45224;-64
2021/08/24 07:02:48;;;;;;;;;35.75;33.50;;;;;16.60;77.11;101553.72;5053177;28;45355;-62
2021/08/24 07:05:17;;;;;;;;;44.25;33.50;;;;;16.69;77.20;101563.03;5052979;28;45405;-64
2021/08/24 07:07:43;;;;;;;;;34.50;31.75;;;;;16.68;77.15;101556.84;5050569;28;45498;-64
2021/08/24 07:10:10;;;;;;;;;37.25;33.75;;;;;16.76;76.85;101559.97;5051860;28;45393;-62
2021/08/24 07:12:36;;;;;;;;;38.75;33.25;;;;;16.86;76.75;101565.69;5052119;28;45509;-68
2021/08/24 07:15:03;;;;;;;;;42.00;33.25;;;;;16.91;76.54;101554.81;5052380;28;45678;-64
2021/08/24 07:17:28;;;;;;;;;39.25;34.75;;;;;17.00;75.82;101557.03;5052155;28;45448;-69
2021/08/24 07:19:54;;;;;;;;;32.50;28.75;;;;;17.06;75.82;101554.06;5052718;28;45539;-65
2021/08/24 07:22:20;;;;;;;;;39.50;34.00;;;;;17.02;75.53;101547.19;5052722;28;45493;-69
2021/08/24 07:24:45;;;;;;;;;37.25;32.25;;;;;17.14;75.75;101563.44;5035136;28;46134;-67
2021/08/24 07:27:11;;;;;;;;;37.50;32.75;;;;;17.22;75.39;101559.41;5034795;28;47355;-68
2021/08/24 07:29:36;;;;;;;;;33.00;31.00;;;;;17.32;75.04;101549.16;5054378;28;45415;-68
2021/08/24 07:32:03;;;;;;;;;33.00;30.25;;;;;17.48;75.18;101558.97;5019756;28;45328;-67
2021/08/24 07:34:28;;;;;;;;;36.75;32.50;;;;;17.59;74.36;101561.91;5053258;28;45547;-68
2021/08/24 07:36:54;;;;;;;;;35.75;31.25;;;;;17.67;73.92;101561.50;5054789;28;45914;-69
2021/08/24 07:39:19;;;;;;;;;43.25;33.50;;;;;17.79;73.89;101557.31;5052917;28;45406;-69
2021/08/24 07:41:45;;;;;;;;;37.50;33.25;;;;;17.92;73.22;101560.16;5054048;28;45458;-69
2021/08/24 07:44:10;;;;;;;;;34.75;30.50;;;;;18.04;72.85;101556.00;5054459;28;45689;-68
2021/08/24 07:46:36;;;;;;;;;35.25;30.75;;;;;18.17;72.13;101561.47;5054471;28;45728;-69
2021/08/24 07:49:01;;;;;;;;;37.00;32.50;;;;;18.25;71.55;101553.88;5068589;27;45688;-68
2021/08/24 07:51:26;;;;;;;;;38.00;31.50;;;;;18.30;71.27;101554.50;5073156;28;45844;-68
2021/08/24 07:53:52;;;;;;;;;31.25;29.75;;;;;18.33;70.10;101554.31;5073781;27;45686;-67
2021/08/24 07:56:21;;;;;;;;;34.00;30.50;;;;;18.34;70.27;101555.19;5073995;28;46097;-68
2021/08/24 07:58:46;;;;;;;;;27.50;23.75;;;;;18.41;69.64;101564.53;5074260;28;45362;-68
2021/08/24 08:01:12;;;;;;;;;32.50;29.50;;;;;18.44;69.90;101560.81;5073047;27;45633;-68
2021/08/24 08:03:37;;;;;;;;;29.50;25.50;;;;;18.54;69.45;101557.53;5074535;27;45257;-67
2021/08/24 08:06:03;;;;;;;;;28.25;26.25;;;;;18.66;69.30;101557.78;5055607;28;47137;-69
2021/08/24 08:08:28;;;;;;;;;25.50;25.00;;;;;18.63;68.41;101556.16;5074374;27;45266;-68
2021/08/24 08:10:56;;;;;;;;;26.25;22.25;;;;;18.69;68.46;101554.91;5077771;27;45293;-68
2021/08/24 08:13:26;;;;;;;;;23.75;22.25;;;;;18.76;68.77;101552.75;5077554;27;45411;-67
2021/08/24 08:15:52;;;;;;;;;26.00;25.50;;;;;18.95;68.04;101561.38;5058767;28;48532;-66
2021/08/24 08:18:21;;;;;;;;;26.25;21.25;;;;;19.09;66.54;101565.03;5076014;27;45596;-70
2021/08/24 08:20:47;;;;;;;;;21.25;20.50;;;;;19.12;66.84;101552.41;5077482;27;45406;-69
2021/08/24 08:23:16;;;;;;;;;22.75;22.00;;;;;19.20;66.98;101562.56;5076235;27;45495;-68
2021/08/24 08:25:42;;;;;;;;;29.50;25.50;;;;;19.29;66.56;101560.28;5058833;28;46294;-67
2021/08/24 08:28:08;;;;;;;;;26.50;19.75;;;;;19.38;65.99;101560.59;5077220;27;45307;-67
2021/08/24 08:30:34;;;;;;;;;23.50;21.75;;;;;19.45;66.25;101554.88;5058776;28;45386;-69
2021/08/24 08:33:01;;;;;;;;;29.50;22.75;;;;;19.63;65.58;101558.22;5059120;27;45464;-68
2021/08/24 08:35:28;;;;;;;;;20.50;19.25;;;;;19.67;64.13;101555.25;5077094;27;45563;-69
2021/08/24 08:37:54;;;;;;;;;21.50;18.75;;;;;19.69;63.96;101555.16;5076959;27;45529;-69
2021/08/24 08:40:37;;;;;;;;;18.25;18.25;;;;;19.74;63.73;101558.38;5077120;27;45451;-68
2021/08/24 08:43:21;;;;;;;;;23.00;21.50;;;;;19.78;63.62;101567.03;5077219;28;45393;-68
2021/08/24 08:45:50;;;;;;;;;24.00;20.75;;;;;19.84;63.28;101555.97;5076754;27;46215;-68
2021/08/24 08:48:37;;;;;;;;;22.00;20.25;;;;;19.98;63.66;101565.81;5076955;28;45262;-71
2021/08/24 08:51:41;;;;;;;;;18.75;16.00;;;;;20.17;63.18;101556.59;5077137;28;45378;-71
2021/08/24 08:54:18;;;;;;;;;23.00;19.75;;;;;20.27;62.79;101558.56;5059757;27;45217;-67
2021/08/24 08:56:53;;;;;;;;;22.00;19.50;;;;;20.28;60.24;101540.72;5076546;27;45358;-67
2021/08/24 08:59:44;;;;;;;;;19.00;17.00;;;;;20.44;60.79;101565.44;5077064;27;45378;-69
2021/08/24 09:02:34;;;;;;;;;16.25;16.25;;;;;20.58;61.26;101558.31;5075762;28;45373;-70
2021/08/24 09:05:02;;;;;;;;;20.75;17.00;;;;;20.78;59.87;101562.38;5077262;27;45705;-68
2021/08/24 09:07:38;;;;;;;;;18.00;16.00;;;;;20.82;59.62;101558.53;5058953;28;48149;-69
2021/08/24 09:10:06;;;;;;;;;28.25;25.00;;;;;20.93;60.11;101560.47;5076598;27;45308;-68
2021/08/24 09:12:35;;;;;;;;;20.75;16.00;;;;;21.09;59.61;101560.25;5076401;27;45372;-69
2021/08/24 09:15:01;;;;;;;;;17.25;15.50;;;;;21.21;58.06;101544.34;5076603;27;45468;-68
2021/08/24 09:17:35;;;;;;;;;15.25;12.25;;;;;21.29;56.75;101555.34;5076628;28;46145;-68
2021/08/24 09:20:03;;;;;;;;;14.25;13.25;;;;;21.35;54.86;101557.59;5075989;27;45459;-69
2021/08/24 09:22:29;;;;;;;;;8.00;8.00;;;;;21.31;55.45;101548.06;5076671;27;45461;-67
2021/08/24 09:24:54;;;;;;;;;9.50;7.50;;;;;21.23;53.67;101545.91;5076665;27;45404;-69
2021/08/24 09:27:48;;;;;;;;;11.00;9.25;;;;;21.15;53.27;101549.13;5076251;28;45661;-69
2021/08/24 09:30:15;;;;;;;;;11.50;11.50;;;;;21.07;54.84;101535.44;5057825;28;45826;-68
2021/08/24 09:32:40;;;;;;;;;9.50;9.25;;;;;21.25;55.11;101553.84;5074514;28;45225;-69
2021/08/24 09:35:16;;;;;;;;;39.50;32.50;;;;;21.44;56.11;101554.25;5076144;28;45341;-67
2021/08/24 09:37:42;;;;;;;;;12.00;12.00;;;;;21.68;55.96;101548.16;5073995;28;48770;-69
2021/08/24 09:40:11;;;;;;;;;12.25;10.50;;;;;21.87;53.73;101544.13;5075348;27;45248;-67
2021/08/24 09:42:40;;;;;;;;;12.00;9.00;;;;;22.02;53.98;101548.34;5075963;28;45811;-68
2021/08/24 09:45:18;;;;;;;;;10.75;9.50;;;;;22.19;52.33;101546.25;5074454;27;45391;-68
2021/08/24 09:47:51;;;;;;;;;9.50;9.00;;;;;22.08;50.99;101530.97;5075625;27;46615;-68
2021/08/24 09:50:17;;;;;;;;;11.00;7.50;;;;;22.15;51.64;101540.28;5073711;27;45389;-69
2021/08/24 09:52:48;;;;;;;;;7.25;7.25;;;;;22.29;48.90;101531.22;5075638;28;45276;-68
2021/08/24 09:55:21;;;;;;;;;13.00;7.75;;;;;22.40;50.12;101529.56;5076040;27;45280;-68
2021/08/24 09:57:51;;;;;;;;;9.25;8.00;;;;;22.66;48.86;101540.16;5073852;28;47245;-68
2021/08/24 10:00:26;;;;;;;;;7.50;7.00;;;;;22.87;47.90;101525.06;5075575;27;45523;-69
2021/08/24 10:02:58;;;;;;;;;7.25;7.00;;;;;23.01;48.60;101510.59;5073726;27;45410;-68
2021/08/24 10:05:23;;;;;;;;;10.00;10.00;;;;;23.43;48.22;101515.38;5074062;28;45357;-68
2021/08/24 10:07:55;;;;;;;;;8.00;8.00;;;;;23.66;46.79;101522.53;5075019;27;46252;-69
2021/08/24 10:10:25;;;;;;;;;5.75;5.75;;;;;23.87;46.59;101519.94;5074767;27;45361;-66
2021/08/24 10:12:51;;;;;;;;;10.00;8.00;;;;;24.08;46.11;101525.41;5073528;27;45251;-69
2021/08/24 10:15:31;;;;;;;;;12.25;10.50;;;;;24.28;46.17;101523.72;5075119;27;45496;-69
2021/08/24 10:18:11;;;;;;;;;13.25;12.00;;;;;24.26;44.73;101519.50;5075025;28;46064;-67
2021/08/24 10:20:42;;;;;;;;;10.00;10.00;;;;;24.19;44.53;101509.25;5056584;28;45253;-68
2021/08/24 10:23:14;;;;;;;;;11.25;10.50;;;;;24.05;41.76;101512.25;5074591;27;45480;-69
2021/08/24 10:25:49;;;;;;;;;10.75;6.75;;;;;23.88;40.76;101513.59;5073539;27;45407;-70
2021/08/24 10:28:27;;;;;;;;;8.75;6.50;;;;;23.64;42.60;101511.94;5075003;28;45773;-69
2021/08/24 10:30:57;;;;;;;;;5.50;5.50;;;;;23.52;42.58;101511.09;5056611;28;45417;-69
2021/08/24 10:33:47;;;;;;;;;8.00;6.25;;;;;23.28;39.90;101508.53;5074402;27;45363;-69
2021/08/24 10:36:46;;;;;;;;;7.75;7.75;;;;;23.16;42.44;101510.34;5074964;28;45447;-71
2021/08/24 10:39:20;;;;;;;;;7.00;6.00;;;;;23.14;42.61;101513.13;5040258;28;46009;-68
2021/08/24 10:42:00;;;;;;;;;7.25;6.50;;;;;23.31;42.99;101508.28;5074681;27;45403;-68
2021/08/24 10:44:27;;;;;;;;;7.50;7.50;;;;;23.59;40.46;101496.19;5075133;28;45354;-68
2021/08/24 10:47:06;;;;;;;;;15.00;13.00;;;;;23.97;41.69;101499.41;5075244;27;45441;-68
2021/08/24 10:49:32;;;;;;;;;14.00;10.50;;;;;24.40;41.02;101502.22;5056498;28;48919;-67
2021/08/24 10:52:01;;;;;;;;;7.25;5.75;;;;;24.59;39.86;101504.16;5056006;28;46098;-68
2021/08/24 10:54:41;;;;;;;;;11.00;7.25;;;;;24.74;39.78;101504.72;5074378;28;45312;-69
2021/08/24 10:57:37;;;;;;;;;4.50;4.50;;;;;24.77;37.01;101510.69;5074881;28;45367;-68
2021/08/24 11:00:22;;;;;;;;;5.50;5.25;;;;;24.61;39.07;101504.88;5073288;28;47231;-68
2021/08/24 11:03:29;;;;;;;;;7.00;7.00;;;;;24.58;37.78;101503.31;5072811;27;45346;-68
2021/08/24 11:06:13;;;;;;;;;7.50;7.00;;;;;24.69;38.89;101506.94;5074402;28;45377;-69
2021/08/24 11:08:59;;;;;;;;;6.75;5.00;;;;;24.72;37.11;101509.34;5074314;28;45619;-68
2021/08/24 11:11:24;;;;;;;;;3.00;3.00;;;;;24.59;34.85;101505.03;5072887;27;48982;-66
2021/08/24 11:14:21;;;;;;;;;5.00;5.00;;;;;24.46;36.56;101501.69;5072942;27;45421;-70
2021/08/24 11:16:52;;;;;;;;;5.25;4.50;;;;;24.69;35.70;101498.84;5012682;28;45416;-69
2021/08/24 11:19:40;;;;;;;;;5.50;5.00;;;;;24.86;35.38;101494.72;5072313;28;45337;-67
2021/08/24 11:22:16;;;;;;;;;5.00;5.00;;;;;24.64;34.71;101500.09;5024807;28;45383;-68
2021/08/24 11:24:44;;;;;;;;;3.00;3.00;;;;;24.47;35.44;101498.84;5035383;28;45563;-66
2021/08/24 11:27:16;;;;;;;;;6.50;5.25;;;;;24.43;36.11;101486.66;5073005;28;45294;-69